createdAt,value
2022-12-17T00:05:24.328Z,33
2022-12-17T00:15:29.739Z,37
2022-12-17T00:25:37.934Z,35
2022-12-17T00:35:41.092Z,38
2022-12-17T00:45:47.430Z,35
2022-12-17T00:55:51.865Z,37
2022-12-17T01:05:57.432Z,34
2022-12-17T01:16:02.156Z,32
2022-12-17T01:26:08.589Z,31
2022-12-17T01:36:12.316Z,29
2022-12-17T01:46:20.162Z,29
2022-12-17T01:56:25.901Z,34
2022-12-17T02:06:32.203Z,35
2022-12-17T02:16:37.176Z,37
2022-12-17T02:26:42.352Z,43
2022-12-17T02:36:49.291Z,37
2022-12-17T02:46:56.658Z,40
2022-12-17T02:57:01.920Z,38
2022-12-17T03:07:06.466Z,36
2022-12-17T03:17:19.971Z,38
2022-12-17T03:27:17.172Z,39
2022-12-17T03:37:23.531Z,42
2022-12-17T03:47:29.332Z,40
2022-12-17T03:57:35.892Z,42
2022-12-17T04:07:42.702Z,37
2022-12-17T04:17:46.706Z,35
2022-12-17T04:27:51.732Z,38
2022-12-17T04:37:58.350Z,38
2022-12-17T04:48:03.732Z,36
2022-12-17T04:58:11.919Z,38
2022-12-17T05:08:18.833Z,36
2022-12-17T05:18:23.803Z,50
2022-12-17T05:28:30.895Z,48
2022-12-17T05:38:38.074Z,56
2022-12-17T05:48:43.258Z,45
2022-12-17T05:58:48.940Z,34
2022-12-17T06:08:54.069Z,34
2022-12-17T06:19:03.581Z,37
2022-12-17T06:29:07.041Z,33
2022-12-17T06:39:14.307Z,38
2022-12-17T06:49:21.130Z,39
2022-12-17T06:59:27.627Z,41
2022-12-17T07:09:35.311Z,37
2022-12-17T07:19:37.547Z,37
2022-12-17T07:29:42.444Z,36
2022-12-17T07:39:48.786Z,37
2022-12-17T07:50:01.254Z,36
2022-12-17T08:00:02.150Z,37
2022-12-17T08:10:08.367Z,38
2022-12-17T08:20:14.808Z,35
2022-12-17T08:30:21.293Z,38
2022-12-17T08:40:27.673Z,39
2022-12-17T08:50:35.001Z,36
2022-12-17T09:00:41.180Z,36
2022-12-17T09:10:47.653Z,37
2022-12-17T09:20:59.389Z,43
2022-12-17T09:31:00.641Z,33
2022-12-17T09:41:06.982Z,38
2022-12-17T09:51:15.211Z,34
2022-12-17T10:01:19.628Z,42
2022-12-17T10:11:24.382Z,32
2022-12-17T10:21:30.185Z,31
2022-12-17T10:31:35.515Z,31
2022-12-17T10:41:40.955Z,31
2022-12-17T10:51:46.619Z,29
2022-12-17T11:01:55.995Z,31
2022-12-17T11:12:04.218Z,28
2022-12-17T11:22:04.569Z,32
2022-12-17T11:32:10.612Z,30
2022-12-17T11:42:13.741Z,25
2022-12-17T11:52:18.637Z,28
2022-12-17T12:02:23.431Z,29
2022-12-17T12:12:29.972Z,26
2022-12-17T12:22:38.138Z,25
2022-12-17T12:32:42.514Z,28
2022-12-17T12:42:48.478Z,28
2022-12-17T12:52:53.502Z,30
2022-12-17T13:03:02.238Z,29
2022-12-17T13:13:07.776Z,26
2022-12-17T13:23:12.633Z,27
2022-12-17T13:33:18.624Z,28
2022-12-17T13:43:25.082Z,25
2022-12-17T13:53:34.160Z,32
2022-12-17T14:04:04.980Z,29
2022-12-17T14:14:00.629Z,28
2022-12-17T14:24:05.242Z,30
2022-12-17T14:34:11.420Z,34
2022-12-17T14:44:21.254Z,29
2022-12-17T14:54:22.787Z,28
2022-12-17T15:04:29.077Z,33
2022-12-17T15:14:40.158Z,32
2022-12-17T15:24:42.261Z,40
2022-12-17T15:34:46.131Z,30
2022-12-17T15:44:51.935Z,30
2022-12-17T15:54:54.991Z,28
2022-12-17T16:05:09.172Z,35
2022-12-17T16:15:06.675Z,32
2022-12-17T16:25:12.796Z,26
2022-12-17T16:35:20.341Z,25
2022-12-17T16:45:25.080Z,32
2022-12-17T16:55:29.296Z,28
2022-12-17T17:05:35.211Z,30
2022-12-17T17:15:39.095Z,31
2022-12-17T17:25:57.919Z,33
2022-12-17T17:35:51.818Z,35
2022-12-17T17:45:56.936Z,35
2022-12-17T17:56:07.078Z,37
2022-12-17T18:06:18.257Z,39
2022-12-17T18:16:19.359Z,34
2022-12-17T18:26:25.279Z,34
2022-12-17T18:36:31.752Z,30
2022-12-17T18:46:40.069Z,30
2022-12-17T18:57:01.507Z,30
2022-12-17T19:06:55.319Z,31
2022-12-17T19:17:00.620Z,30
2022-12-17T19:27:07.995Z,30
2022-12-17T19:37:15.758Z,34
2022-12-17T19:47:17.918Z,31
2022-12-17T19:57:25.163Z,35
2022-12-17T20:07:30.589Z,30
2022-12-17T20:17:35.294Z,35
2022-12-17T20:27:39.790Z,33
2022-12-17T20:37:45.960Z,31
2022-12-17T20:47:52.139Z,31
2022-12-17T20:57:57.914Z,29
2022-12-17T21:08:02.953Z,27
2022-12-17T21:18:08.194Z,26
2022-12-17T21:28:15.276Z,27
2022-12-17T21:38:20.962Z,27
2022-12-17T21:48:25.937Z,32
2022-12-17T21:58:31.757Z,30
2022-12-17T22:08:41.733Z,32
2022-12-17T22:19:41.229Z,27
2022-12-17T22:29:47.383Z,26
2022-12-17T22:46:00.824Z,25
2022-12-17T22:56:10.325Z,27
2022-12-17T23:06:41.025Z,29
2022-12-17T23:16:48.842Z,31
2022-12-17T23:26:55.054Z,31
2022-12-17T23:37:01.798Z,33
2022-12-17T23:47:08.761Z,31
2022-12-17T23:57:13.331Z,30
